Sumisemaru No.5 — JE3162 — position and weather

sailwx.info

Track history (hours):
 
Tides and Currents Weather Stations Pressure Air Temp Water Temp Dewpoint Dewpoint Depression Visibility Wind Speed Wind Dir Waves Ship Positions

Sumisemaru No.5

Last reported at 2017-Oct-15 06:53 UTC. Time now 2017-Oct-18 22:27 UTC.
Position N 34°53' E 139°47'.

Length 96 m; draft 5.2 m.

Type: Cargo ship. MMSI: 431700423.

Date/timePositionNaut miles runAvg speedWind from/ knotsBaromVisibWave heightAir tempDewpointWater temp
2017-Oct-15 06:53N 34°53' E 139°47'615.4
2017-Oct-15 06:30N 34°57' E 139°43'714.2
2017-Oct-15 06:00N 35°04' E 139°44'714.1
2017-Oct-15 05:30N 35°11' E 139°46'612.2
2017-Oct-15 05:00N 35°17' E 139°45'612.9
2017-Oct-15 04:30N 35°24' E 139°42'510.0
2017-Oct-15 03:58N 35°29' E 139°40'0 0.3
2017-Oct-15 03:28N 35°29' E 139°40'0 0.0
2017-Oct-15 02:58N 35°29' E 139°40'0 0.0
2017-Oct-15 02:28N 35°29' E 139°40'0 0.0
2017-Oct-15 01:55N 35°29' E 139°40'0 0.0
2017-Oct-15 01:28N 35°29' E 139°40'0 0.0
2017-Oct-15 00:58N 35°29' E 139°40'0 0.0
2017-Oct-15 00:28N 35°29' E 139°40'0 0.0
2017-Oct-14 23:58N 35°29' E 139°40'0 0.0
2017-Oct-14 23:28N 35°29' E 139°40'0 0.0
2017-Oct-14 22:59N 35°29' E 139°40'3 5.5
2017-Oct-14 22:30N 35°27' E 139°42'612.8
2017-Oct-14 22:00N 35°28' E 139°49'712.4
2017-Oct-14 21:26N 35°29' E 139°58'1 0.0
2017-Oct-13 23:41N 35°29' E 139°59'2 0.8
2017-Oct-13 21:10N 35°30' E 139°57'1 5.0
2017-Oct-13 20:59N 35°29' E 139°56'510.4
2017-Oct-13 20:30N 35°27' E 139°50'611.5
2017-Oct-13 20:00N 35°23' E 139°46'510.7
2017-Oct-13 19:30N 35°17' E 139°45'510.8
2017-Oct-13 19:00N 35°12' E 139°47'611.6
2017-Oct-13 18:30N 35°07' E 139°45'611.4
2017-Oct-13 18:00N 35°02' E 139°42'612.0
2017-Oct-13 17:30N 34°58' E 139°36'612.8
2017-Oct-13 17:00N 34°55' E 139°29'  
2017-Oct-10 13:05N 34°57' E 139°27'113.3
2017-Oct-10 13:00N 34°58' E 139°28'613.1
2017-Oct-10 12:30N 35°02' E 139°35'713.0
2017-Oct-10 12:00N 35°06' E 139°41'612.6
2017-Oct-10 11:30N 35°11' E 139°45'612.3
2017-Oct-10 11:00N 35°17' E 139°45'612.9
2017-Oct-10 10:30N 35°23' E 139°42'17 2.0
2017-Oct-10 02:04N 35°33' E 140°00'0 0.0
2017-Oct-10 01:55N 35°33' E 140°00'7 0.2
2017-Oct-08 20:59N 35°34' E 139°51'0 0.0
2017-Oct-08 20:29N 35°34' E 139°51'0 0.0
2017-Oct-08 19:59N 35°34' E 139°51'0 0.0
2017-Oct-08 19:29N 35°34' E 139°51'0 0.0
2017-Oct-08 19:00N 35°34' E 139°51'0 0.0
2017-Oct-08 18:04N 35°34' E 139°51'0 0.0
2017-Oct-08 18:00N 35°34' E 139°51'0 0.0
2017-Oct-08 17:29N 35°34' E 139°51'0 0.0
2017-Oct-08 16:59N 35°34' E 139°51'0 0.2
2017-Oct-08 16:29N 35°34' E 139°51'0 0.0
2017-Oct-08 15:59N 35°34' E 139°51'0 0.1
2017-Oct-08 15:29N 35°34' E 139°51'0 0.1
2017-Oct-08 14:59N 35°34' E 139°51'0 0.0
2017-Oct-08 14:23N 35°34' E 139°51'0 0.0
2017-Oct-08 13:59N 35°34' E 139°51'0 0.1
2017-Oct-08 13:26N 35°34' E 139°51'0 0.1
2017-Oct-08 12:56N 35°34' E 139°51'0 0.0
2017-Oct-08 12:29N 35°34' E 139°51'0 0.1
2017-Oct-08 11:59N 35°34' E 139°51'0 0.0
2017-Oct-08 11:26N 35°34' E 139°51'0 0.0
2017-Oct-08 10:59N 35°34' E 139°51'0 0.0
2017-Oct-08 10:26N 35°34' E 139°51'0 0.1
2017-Oct-08 09:56N 35°34' E 139°51'0 0.0
2017-Oct-08 09:26N 35°34' E 139°51'0 0.0
2017-Oct-08 08:20N 35°34' E 139°51'0 0.0
2017-Oct-08 07:56N 35°34' E 139°51'0 0.0
2017-Oct-08 07:29N 35°34' E 139°51'0 0.0
2017-Oct-08 06:59N 35°34' E 139°51'0 0.0
2017-Oct-08 06:29N 35°34' E 139°51'0 0.0
2017-Oct-08 06:00N 35°34' E 139°51'4 9.0
2017-Oct-08 05:30N 35°30' E 139°52'612.7
2017-Oct-08 05:00N 35°25' E 139°47'612.4
2017-Oct-08 04:30N 35°19' E 139°44'611.7
2017-Oct-08 04:01N 35°14' E 139°47'611.7
2017-Oct-08 03:31N 35°08' E 139°46'611.8
2017-Oct-08 03:00N 35°02' E 139°45'510.8
2017-Oct-08 02:30N 34°59' E 139°40'611.9
2017-Oct-08 02:00N 34°57' E 139°33'231 9.3
2017-Oct-07 01:10N 34°06' E 134°59'312.7
2017-Oct-07 00:58N 34°09' E 134°59'1510.3
2017-Oct-06 23:33N 34°23' E 135°03'113.4
2017-Oct-06 23:30N 34°23' E 135°03'3 4.2
2017-Oct-06 22:51N 34°23' E 135°07'0 0.0
2017-Oct-06 22:21N 34°23' E 135°07'0 0.0
2017-Oct-06 22:00N 34°23' E 135°07'0 0.0
2017-Oct-06 21:31N 34°23' E 135°07'0 0.1
2017-Oct-06 21:00N 34°23' E 135°07'0 0.0
2017-Oct-06 18:58N 34°23' E 135°07'0 0.0
2017-Oct-06 18:30N 34°23' E 135°07'0 0.0
2017-Oct-06 18:00N 34°23' E 135°07'0 0.0
2017-Oct-06 17:31N 34°23' E 135°07'0 0.0
2017-Oct-06 17:00N 34°23' E 135°07'0 0.0
2017-Oct-06 16:30N 34°23' E 135°07'0 0.0
2017-Oct-06 16:00N 34°23' E 135°07'0 0.0
2017-Oct-06 15:30N 34°23' E 135°07'0 0.1
2017-Oct-06 15:00N 34°23' E 135°07'0 0.0
2017-Oct-06 14:30N 34°23' E 135°07'0 0.0
2017-Oct-06 10:23N 34°23' E 135°07'0 0.0
2017-Oct-06 10:00N 34°23' E 135°07'0 0.0
2017-Oct-06 08:21N 34°23' E 135°07'0 0.0
2017-Oct-06 08:01N 34°23' E 135°07'0 0.1
2017-Oct-06 07:30N 34°23' E 135°07'0 0.0
2017-Oct-06 07:00N 34°23' E 135°07'0 0.0
2017-Oct-06 06:27N 34°23' E 135°07'0 0.0
2017-Oct-06 06:00N 34°23' E 135°07'0 0.0
2017-Oct-06 05:27N 34°23' E 135°07'0 0.0
2017-Oct-06 05:00N 34°23' E 135°07'0 0.0
2017-Oct-06 04:29N 34°23' E 135°07'0 0.0
2017-Oct-06 04:00N 34°23' E 135°07'0 0.0
2017-Oct-06 03:28N 34°23' E 135°07'0 0.0
2017-Oct-06 03:00N 34°23' E 135°07'0 0.0
2017-Oct-06 02:30N 34°23' E 135°07'0 0.0
2017-Oct-06 02:01N 34°23' E 135°07'0 0.0
2017-Oct-05 23:37N 34°23' E 135°07'0 0.0
2017-Oct-05 23:17N 34°23' E 135°07'0 0.0
2017-Oct-05 23:00N 34°23' E 135°07'0 0.0
2017-Oct-05 22:23N 34°23' E 135°07'0 0.0
2017-Oct-05 21:59N 34°23' E 135°07'0 0.1
2017-Oct-05 21:31N 34°23' E 135°07'0 0.0
2017-Oct-05 21:00N 34°23' E 135°07'0 0.1
2017-Oct-05 20:30N 34°23' E 135°07'4 7.3
2017-Oct-05 19:58N 34°20' E 135°03'510.9
2017-Oct-05 19:30N 34°16' E 134°59'511.0
2017-Oct-05 19:00N 34°11' E 134°59'  
Track history (hours):
 
Tides and Currents Weather Stations Pressure Air Temp Water Temp Dewpoint Dewpoint Depression Visibility Wind Speed Wind Dir Waves Ship Positions

Sumisemaru No.5

Last reported at 2017-Oct-15 06:53 UTC. Time now 2017-Oct-18 22:27 UTC.
Position N 34°53' E 139°47'.

Length 96 m; draft 5.2 m.

Type: Cargo ship. MMSI: 431700423.

Date/timePositionNaut miles runAvg speedWind from/ knotsBaromVisibWave heightAir tempDewpointWater temp
2017-Oct-15 06:53N 34°53' E 139°47'615.4
2017-Oct-15 06:30N 34°57' E 139°43'714.2
2017-Oct-15 06:00N 35°04' E 139°44'714.1
2017-Oct-15 05:30N 35°11' E 139°46'612.2
2017-Oct-15 05:00N 35°17' E 139°45'612.9
2017-Oct-15 04:30N 35°24' E 139°42'510.0
2017-Oct-15 03:58N 35°29' E 139°40'0 0.3
2017-Oct-15 03:28N 35°29' E 139°40'0 0.0
2017-Oct-15 02:58N 35°29' E 139°40'0 0.0
2017-Oct-15 02:28N 35°29' E 139°40'0 0.0
2017-Oct-15 01:55N 35°29' E 139°40'0 0.0
2017-Oct-15 01:28N 35°29' E 139°40'0 0.0
2017-Oct-15 00:58N 35°29' E 139°40'0 0.0
2017-Oct-15 00:28N 35°29' E 139°40'0 0.0
2017-Oct-14 23:58N 35°29' E 139°40'0 0.0
2017-Oct-14 23:28N 35°29' E 139°40'0 0.0
2017-Oct-14 22:59N 35°29' E 139°40'3 5.5
2017-Oct-14 22:30N 35°27' E 139°42'612.8
2017-Oct-14 22:00N 35°28' E 139°49'712.4
2017-Oct-14 21:26N 35°29' E 139°58'1 0.0
2017-Oct-13 23:41N 35°29' E 139°59'2 0.8
2017-Oct-13 21:10N 35°30' E 139°57'1 5.0
2017-Oct-13 20:59N 35°29' E 139°56'510.4
2017-Oct-13 20:30N 35°27' E 139°50'611.5
2017-Oct-13 20:00N 35°23' E 139°46'510.7
2017-Oct-13 19:30N 35°17' E 139°45'510.8
2017-Oct-13 19:00N 35°12' E 139°47'611.6
2017-Oct-13 18:30N 35°07' E 139°45'611.4
2017-Oct-13 18:00N 35°02' E 139°42'612.0
2017-Oct-13 17:30N 34°58' E 139°36'612.8
2017-Oct-13 17:00N 34°55' E 139°29'  
2017-Oct-10 13:05N 34°57' E 139°27'113.3
2017-Oct-10 13:00N 34°58' E 139°28'613.1
2017-Oct-10 12:30N 35°02' E 139°35'713.0
2017-Oct-10 12:00N 35°06' E 139°41'612.6
2017-Oct-10 11:30N 35°11' E 139°45'612.3
2017-Oct-10 11:00N 35°17' E 139°45'612.9
2017-Oct-10 10:30N 35°23' E 139°42'17 2.0
2017-Oct-10 02:04N 35°33' E 140°00'0 0.0
2017-Oct-10 01:55N 35°33' E 140°00'7 0.2
2017-Oct-08 20:59N 35°34' E 139°51'0 0.0
2017-Oct-08 20:29N 35°34' E 139°51'0 0.0
2017-Oct-08 19:59N 35°34' E 139°51'0 0.0
2017-Oct-08 19:29N 35°34' E 139°51'0 0.0
2017-Oct-08 19:00N 35°34' E 139°51'0 0.0
2017-Oct-08 18:04N 35°34' E 139°51'0 0.0
2017-Oct-08 18:00N 35°34' E 139°51'0 0.0
2017-Oct-08 17:29N 35°34' E 139°51'0 0.0
2017-Oct-08 16:59N 35°34' E 139°51'0 0.2
2017-Oct-08 16:29N 35°34' E 139°51'0 0.0
2017-Oct-08 15:59N 35°34' E 139°51'0 0.1
2017-Oct-08 15:29N 35°34' E 139°51'0 0.1
2017-Oct-08 14:59N 35°34' E 139°51'0 0.0
2017-Oct-08 14:23N 35°34' E 139°51'0 0.0
2017-Oct-08 13:59N 35°34' E 139°51'0 0.1
2017-Oct-08 13:26N 35°34' E 139°51'0 0.1
2017-Oct-08 12:56N 35°34' E 139°51'0 0.0
2017-Oct-08 12:29N 35°34' E 139°51'0 0.1
2017-Oct-08 11:59N 35°34' E 139°51'0 0.0
2017-Oct-08 11:26N 35°34' E 139°51'0 0.0
2017-Oct-08 10:59N 35°34' E 139°51'0 0.0
2017-Oct-08 10:26N 35°34' E 139°51'0 0.1
2017-Oct-08 09:56N 35°34' E 139°51'0 0.0
2017-Oct-08 09:26N 35°34' E 139°51'0 0.0
2017-Oct-08 08:20N 35°34' E 139°51'0 0.0
2017-Oct-08 07:56N 35°34' E 139°51'0 0.0
2017-Oct-08 07:29N 35°34' E 139°51'0 0.0
2017-Oct-08 06:59N 35°34' E 139°51'0 0.0
2017-Oct-08 06:29N 35°34' E 139°51'0 0.0
2017-Oct-08 06:00N 35°34' E 139°51'4 9.0
2017-Oct-08 05:30N 35°30' E 139°52'612.7
2017-Oct-08 05:00N 35°25' E 139°47'612.4
2017-Oct-08 04:30N 35°19' E 139°44'611.7
2017-Oct-08 04:01N 35°14' E 139°47'611.7
2017-Oct-08 03:31N 35°08' E 139°46'611.8
2017-Oct-08 03:00N 35°02' E 139°45'510.8
2017-Oct-08 02:30N 34°59' E 139°40'611.9
2017-Oct-08 02:00N 34°57' E 139°33'231 9.3
2017-Oct-07 01:10N 34°06' E 134°59'312.7
2017-Oct-07 00:58N 34°09' E 134°59'1510.3
2017-Oct-06 23:33N 34°23' E 135°03'113.4
2017-Oct-06 23:30N 34°23' E 135°03'3 4.2
2017-Oct-06 22:51N 34°23' E 135°07'0 0.0
2017-Oct-06 22:21N 34°23' E 135°07'0 0.0
2017-Oct-06 22:00N 34°23' E 135°07'0 0.0
2017-Oct-06 21:31N 34°23' E 135°07'0 0.1
2017-Oct-06 21:00N 34°23' E 135°07'0 0.0
2017-Oct-06 18:58N 34°23' E 135°07'0 0.0
2017-Oct-06 18:30N 34°23' E 135°07'0 0.0
2017-Oct-06 18:00N 34°23' E 135°07'0 0.0
2017-Oct-06 17:31N 34°23' E 135°07'0 0.0
2017-Oct-06 17:00N 34°23' E 135°07'0 0.0
2017-Oct-06 16:30N 34°23' E 135°07'0 0.0
2017-Oct-06 16:00N 34°23' E 135°07'0 0.0
2017-Oct-06 15:30N 34°23' E 135°07'0 0.1
2017-Oct-06 15:00N 34°23' E 135°07'0 0.0
2017-Oct-06 14:30N 34°23' E 135°07'0 0.0
2017-Oct-06 10:23N 34°23' E 135°07'0 0.0
2017-Oct-06 10:00N 34°23' E 135°07'0 0.0
2017-Oct-06 08:21N 34°23' E 135°07'0 0.0
2017-Oct-06 08:01N 34°23' E 135°07'0 0.1
2017-Oct-06 07:30N 34°23' E 135°07'0 0.0
2017-Oct-06 07:00N 34°23' E 135°07'0 0.0
2017-Oct-06 06:27N 34°23' E 135°07'0 0.0
2017-Oct-06 06:00N 34°23' E 135°07'0 0.0
2017-Oct-06 05:27N 34°23' E 135°07'0 0.0
2017-Oct-06 05:00N 34°23' E 135°07'0 0.0
2017-Oct-06 04:29N 34°23' E 135°07'0 0.0
2017-Oct-06 04:00N 34°23' E 135°07'0 0.0
2017-Oct-06 03:28N 34°23' E 135°07'0 0.0
2017-Oct-06 03:00N 34°23' E 135°07'0 0.0
2017-Oct-06 02:30N 34°23' E 135°07'0 0.0
2017-Oct-06 02:01N 34°23' E 135°07'0 0.0
2017-Oct-05 23:37N 34°23' E 135°07'0 0.0
2017-Oct-05 23:17N 34°23' E 135°07'0 0.0
2017-Oct-05 23:00N 34°23' E 135°07'0 0.0
2017-Oct-05 22:23N 34°23' E 135°07'0 0.0
2017-Oct-05 21:59N 34°23' E 135°07'0 0.1
2017-Oct-05 21:31N 34°23' E 135°07'0 0.0
2017-Oct-05 21:00N 34°23' E 135°07'0 0.1
2017-Oct-05 20:30N 34°23' E 135°07'4 7.3
2017-Oct-05 19:58N 34°20' E 135°03'510.9
2017-Oct-05 19:30N 34°16' E 134°59'511.0
2017-Oct-05 19:00N 34°11' E 134°59'  

Dump ship's entire track history